Time;durP1;ratioP1;P1;durP2;ratioP2;P2;SDS_P1;SDS_P2;PMS_P1;PMS_P2;Temp;Humidity;BMP_temperature;BMP_pressure;BME280_temperature;BME280_humidity;BME280_pressure;Samples;Min_cycle;Max_cycle;Signal;HPM_P1;HPM_P2
2023/11/23 00:01:37;;;;;;;88.38;18.50;;;10.10;94.20;;;;;;4966764;29;20023;-52
2023/11/23 00:04:02;;;;;;;100.47;19.67;;;10.00;94.20;;;;;;4968335;28;20047;-51
2023/11/23 00:06:28;;;;;;;109.70;19.55;;;10.00;94.20;;;;;;4966783;29;20113;-51
2023/11/23 00:08:54;;;;;;;74.03;17.77;;;10.00;94.20;;;;;;4967760;29;20043;-52
2023/11/23 00:11:19;;;;;;;86.43;17.27;;;10.00;94.20;;;;;;4950501;29;20033;-51
2023/11/23 00:13:45;;;;;;;88.03;18.75;;;10.00;94.20;;;;;;4968595;28;20055;-51
2023/11/23 00:16:11;;;;;;;87.40;17.98;;;10.00;94.20;;;;;;4954574;29;20479;-51
2023/11/23 00:18:37;;;;;;;71.65;17.05;;;9.90;94.20;;;;;;4971675;28;20039;-51
2023/11/23 00:21:03;;;;;;;75.55;17.50;;;9.90;94.20;;;;;;4971492;29;20554;-51
2023/11/23 00:23:28;;;;;;;77.80;17.20;;;9.90;94.20;;;;;;4970308;29;20039;-51
2023/11/23 00:25:54;;;;;;;77.65;17.98;;;9.90;94.20;;;;;;4970285;29;20031;-51
2023/11/23 00:28:19;;;;;;;100.75;17.60;;;9.90;94.50;;;;;;4953955;29;20035;-51
2023/11/23 00:30:45;;;;;;;72.10;15.52;;;9.80;94.20;;;;;;4971320;29;20034;-51
2023/11/23 00:33:10;;;;;;;78.10;15.80;;;9.80;94.20;;;;;;4971465;29;20082;-51
2023/11/23 00:35:36;;;;;;;68.28;16.83;;;9.80;94.20;;;;;;4971299;29;20035;-51
2023/11/23 00:38:03;;;;;;;70.97;15.45;;;9.80;94.20;;;;;;4969885;29;20035;-51
2023/11/23 00:40:28;;;;;;;77.40;16.20;;;9.80;94.20;;;;;;4971345;28;20031;-52
2023/11/23 00:42:54;;;;;;;67.20;15.70;;;9.70;94.20;;;;;;4970015;29;20039;-51
2023/11/23 00:45:20;;;;;;;76.97;16.40;;;9.70;94.20;;;;;;4971054;29;20023;-51
2023/11/23 00:47:45;;;;;;;83.60;16.35;;;9.70;94.20;;;;;;4971178;29;20062;-51
2023/11/23 00:50:11;;;;;;;68.57;14.60;;;9.70;94.30;;;;;;4969745;29;20368;-51
2023/11/23 00:52:36;;;;;;;63.58;15.60;;;9.70;94.40;;;;;;4971147;29;20035;-52
2023/11/23 00:55:04;;;;;;;58.60;14.90;;;9.70;94.50;;;;;;4969631;29;20059;-52
2023/11/23 00:57:35;;;;;;;52.80;14.48;;;9.70;94.40;;;;;;4969659;28;20035;-51
2023/11/23 01:00:02;;;;;;;55.28;13.88;;;9.60;94.30;;;;;;4971189;28;20039;-52
2023/11/23 01:02:28;;;;;;;55.28;14.38;;;9.60;94.30;;;;;;4971065;29;20042;-51
2023/11/23 01:04:54;;;;;;;56.15;15.10;;;9.60;94.40;;;;;;4953912;29;20023;-51
2023/11/23 01:07:19;;;;;;;58.13;15.10;;;9.60;94.40;;;;;;4970586;29;20043;-51
2023/11/23 01:09:45;;;;;;;52.03;13.90;;;9.50;94.40;;;;;;4985439;28;20054;-51
2023/11/23 01:12:10;;;;;;;64.97;13.85;;;9.60;94.50;;;;;;4969449;29;20034;-51
2023/11/23 01:14:36;;;;;;;61.95;15.48;;;9.50;94.50;;;;;;4953491;29;20024;-51
2023/11/23 01:17:03;;;;;;;52.83;15.15;;;9.50;94.50;;;;;;4970409;29;20055;-51
2023/11/23 01:19:28;;;;;;;63.85;15.93;;;9.50;94.50;;;;;;4937812;29;20027;-51
2023/11/23 01:21:54;;;;;;;49.63;14.68;;;9.50;94.50;;;;;;4969279;29;20061;-51
2023/11/23 01:24:19;;;;;;;49.25;14.77;;;9.50;94.50;;;;;;4953227;28;20030;-51
2023/11/23 01:26:45;;;;;;;42.83;13.52;;;9.50;94.50;;;;;;4969175;29;20039;-51
2023/11/23 01:29:11;;;;;;;58.03;14.73;;;9.50;94.40;;;;;;4969129;29;20106;-51
2023/11/23 01:31:36;;;;;;;46.13;13.88;;;9.50;94.30;;;;;;4969111;29;20032;-51
2023/11/23 01:34:02;;;;;;;53.30;15.43;;;9.40;94.40;;;;;;4968868;29;20042;-51
2023/11/23 01:36:27;;;;;;;48.42;14.30;;;9.50;94.40;;;;;;4968569;29;20050;-52
2023/11/23 01:38:53;;;;;;;59.90;14.85;;;9.40;94.40;;;;;;4952650;29;20038;-51
2023/11/23 01:41:19;;;;;;;44.45;13.07;;;9.40;94.40;;;;;;4968750;29;20034;-52
2023/11/23 01:43:46;;;;;;;44.83;13.95;;;9.40;94.40;;;;;;4968610;29;20054;-51
2023/11/23 01:46:12;;;;;;;43.33;13.02;;;9.40;94.40;;;;;;4952971;29;20028;-51
2023/11/23 01:48:38;;;;;;;43.45;13.35;;;9.40;94.40;;;;;;4968880;29;20473;-51
2023/11/23 01:51:03;;;;;;;46.88;13.73;;;9.40;94.40;;;;;;4952807;29;20122;-51
2023/11/23 01:53:29;;;;;;;51.83;13.40;;;9.30;94.40;;;;;;4968704;29;20039;-51
2023/11/23 01:55:56;;;;;;;42.45;13.57;;;9.30;94.40;;;;;;4952485;29;20443;-51
2023/11/23 01:58:22;;;;;;;33.20;12.88;;;9.40;94.40;;;;;;4952768;29;20034;-52
2023/11/23 02:00:50;;;;;;;46.03;12.93;;;9.30;94.40;;;;;;4969836;28;20031;-51
2023/11/23 02:03:16;;;;;;;42.35;13.40;;;9.30;94.40;;;;;;4937020;29;20067;-51
2023/11/23 02:05:41;;;;;;;33.22;12.90;;;9.30;94.50;;;;;;4969731;29;20035;-51
2023/11/23 02:08:07;;;;;;;42.83;13.05;;;9.30;94.80;;;;;;4968329;29;20035;-51
2023/11/23 02:10:32;;;;;;;35.20;12.20;;;9.30;94.50;;;;;;4969587;29;20027;-51
2023/11/23 02:12:58;;;;;;;36.83;13.55;;;9.30;94.50;;;;;;4968308;29;20046;-51
2023/11/23 02:15:24;;;;;;;39.80;13.88;;;9.30;94.50;;;;;;4968077;29;20032;-51
2023/11/23 02:18:00;;;;;;;47.40;13.57;;;9.30;94.50;;;;;;4968151;29;20027;-51
2023/11/23 02:20:26;;;;;;;35.05;12.80;;;9.30;94.50;;;;;;4968318;29;20047;-51
2023/11/23 02:22:51;;;;;;;40.97;12.85;;;9.20;94.40;;;;;;4984193;28;20499;-51
2023/11/23 02:25:17;;;;;;;39.80;15.20;;;9.20;94.50;;;;;;4969235;29;20432;-51
2023/11/23 02:27:42;;;;;;;41.38;13.85;;;9.20;94.40;;;;;;4968123;29;20123;-51
2023/11/23 02:30:09;;;;;;;37.97;13.18;;;9.20;94.40;;;;;;4967809;29;20040;-51
2023/11/23 02:32:34;;;;;;;34.67;13.48;;;9.20;94.50;;;;;;4952142;29;20035;-52
2023/11/23 02:35:00;;;;;;;32.00;12.88;;;9.20;94.50;;;;;;4969251;28;20082;-51
2023/11/23 02:37:25;;;;;;;34.42;12.55;;;9.20;94.50;;;;;;4967551;28;20098;-51
2023/11/23 02:39:51;;;;;;;30.63;12.45;;;9.20;94.50;;;;;;4969189;29;20058;-52
2023/11/23 02:42:16;;;;;;;38.63;12.52;;;9.20;94.60;;;;;;4969081;29;20031;-52
2023/11/23 02:44:42;;;;;;;39.90;12.85;;;9.20;94.70;;;;;;4969242;29;20031;-51
2023/11/23 02:47:07;;;;;;;35.45;12.05;;;9.20;94.80;;;;;;4968959;29;20038;-52
2023/11/23 02:49:33;;;;;;;34.92;11.30;;;9.20;94.90;;;;;;4968750;29;20048;-51
2023/11/23 02:51:59;;;;;;;38.08;13.00;;;9.10;94.90;;;;;;4951537;29;20040;-51
2023/11/23 02:54:24;;;;;;;33.10;13.77;;;9.10;95.10;;;;;;4968843;29;20042;-51
2023/11/23 02:56:50;;;;;;;26.50;11.07;;;9.10;95.20;;;;;;4967329;28;20371;-51
2023/11/23 02:59:16;;;;;;;32.15;11.68;;;9.10;95.10;;;;;;4968484;28;20035;-51
2023/11/23 03:01:41;;;;;;;30.60;12.27;;;9.10;95.10;;;;;;4968752;28;20028;-52
2023/11/23 03:04:07;;;;;;;36.92;12.63;;;9.10;95.10;;;;;;4935711;29;20023;-51
2023/11/23 03:06:33;;;;;;;32.55;12.50;;;9.10;95.30;;;;;;4951149;29;20093;-51
2023/11/23 03:08:58;;;;;;;30.98;13.40;;;9.10;95.10;;;;;;4967200;29;20034;-51
2023/11/23 03:11:27;;;;;;;30.67;12.65;;;9.10;95.00;;;;;;4968434;29;20074;-52
2023/11/23 03:13:57;;;;;;;32.88;12.77;;;9.10;95.00;;;;;;4967583;29;20046;-51
2023/11/23 03:16:24;;;;;;;24.92;11.95;;;9.00;94.90;;;;;;4967147;29;20030;-52
2023/11/23 03:18:50;;;;;;;31.23;12.77;;;9.10;94.90;;;;;;4967284;29;20064;-51
2023/11/23 03:21:15;;;;;;;28.40;12.60;;;9.00;94.90;;;;;;4967016;29;20167;-51
2023/11/23 03:23:42;;;;;;;27.13;12.93;;;9.00;94.90;;;;;;4967212;29;20027;-51
2023/11/23 03:26:07;;;;;;;32.25;12.80;;;9.00;94.90;;;;;;4935326;29;20034;-51
2023/11/23 03:28:33;;;;;;;28.00;13.40;;;9.00;94.90;;;;;;4950918;29;20090;-51
2023/11/23 03:30:59;;;;;;;31.85;12.95;;;9.00;94.90;;;;;;4967046;29;20036;-51
2023/11/23 03:33:24;;;;;;;26.20;12.55;;;9.00;94.80;;;;;;4950982;29;20031;-52
2023/11/23 03:35:50;;;;;;;22.92;13.13;;;8.90;94.80;;;;;;4968175;29;20041;-51
2023/11/23 03:38:16;;;;;;;33.25;13.20;;;8.90;94.80;;;;;;4966620;29;20118;-51
2023/11/23 03:40:42;;;;;;;26.58;12.68;;;8.90;94.80;;;;;;4966766;29;20032;-52
2023/11/23 03:43:09;;;;;;;27.52;12.10;;;8.90;94.80;;;;;;4966676;29;20082;-51
2023/11/23 03:45:35;;;;;;;30.23;12.82;;;8.90;94.80;;;;;;4968005;28;20034;-51
2023/11/23 03:48:01;;;;;;;23.85;12.05;;;8.90;94.90;;;;;;4966331;29;20035;-51
2023/11/23 03:50:26;;;;;;;25.58;12.45;;;8.90;94.90;;;;;;4950639;29;20174;-51
2023/11/23 03:52:52;;;;;;;26.90;13.68;;;8.90;94.90;;;;;;4967687;29;20035;-51
2023/11/23 03:55:18;;;;;;;26.25;13.07;;;8.90;95.00;;;;;;4967695;29;20114;-51
2023/11/23 03:57:44;;;;;;;24.95;13.20;;;8.90;95.10;;;;;;4950623;29;20031;-51
2023/11/23 04:00:10;;;;;;;26.25;12.55;;;8.90;95.10;;;;;;4966793;29;20034;-51
2023/11/23 04:02:36;;;;;;;26.80;13.15;;;8.90;95.10;;;;;;4967941;28;20202;-51
2023/11/23 04:05:01;;;;;;;21.98;12.88;;;8.90;95.00;;;;;;4934730;29;20495;-51
2023/11/23 04:07:27;;;;;;;28.95;13.80;;;8.90;95.00;;;;;;4950575;29;20030;-51
2023/11/23 04:09:52;;;;;;;25.25;13.07;;;8.90;95.10;;;;;;4967804;29;20535;-51
2023/11/23 04:12:18;;;;;;;25.30;13.50;;;8.90;94.90;;;;;;4967791;29;20535;-51
2023/11/23 04:14:43;;;;;;;29.35;13.98;;;8.80;94.90;;;;;;4966549;29;20060;-51
2023/11/23 04:17:09;;;;;;;27.70;13.02;;;8.80;94.80;;;;;;4967852;29;20501;-51
2023/11/23 04:19:34;;;;;;;31.20;12.88;;;8.80;94.80;;;;;;4967720;29;20031;-51
2023/11/23 04:22:00;;;;;;;27.42;13.02;;;8.90;94.70;;;;;;4967907;29;20032;-51
2023/11/23 04:24:26;;;;;;;21.48;12.90;;;8.90;94.70;;;;;;4967759;29;20042;-51
2023/11/23 04:26:52;;;;;;;23.45;12.23;;;8.80;94.70;;;;;;4966366;29;20506;-51
2023/11/23 04:29:19;;;;;;;24.77;12.98;;;8.80;94.80;;;;;;4967645;28;20028;-51
2023/11/23 04:31:45;;;;;;;27.00;14.35;;;8.80;94.80;;;;;;4950548;29;20031;-51
2023/11/23 04:34:10;;;;;;;23.52;13.02;;;8.90;94.80;;;;;;4966605;29;20035;-51
2023/11/23 04:36:36;;;;;;;23.55;12.52;;;8.80;94.60;;;;;;4950277;29;20099;-51
2023/11/23 04:39:03;;;;;;;31.23;12.55;;;8.80;94.50;;;;;;4966214;29;20043;-51
2023/11/23 04:41:28;;;;;;;21.05;12.50;;;8.80;94.50;;;;;;4966167;29;20020;-51
2023/11/23 04:43:54;;;;;;;21.75;12.00;;;8.70;94.50;;;;;;4967594;29;20100;-51
2023/11/23 04:46:20;;;;;;;22.45;11.55;;;8.80;94.50;;;;;;4967442;29;20027;-51
2023/11/23 04:48:47;;;;;;;24.40;11.55;;;8.80;94.50;;;;;;4950442;29;20086;-51
2023/11/23 04:51:13;;;;;;;23.20;11.63;;;8.70;94.50;;;;;;4967334;28;20042;-52
2023/11/23 04:53:38;;;;;;;24.90;11.07;;;8.70;94.50;;;;;;4967505;29;20036;-51
2023/11/23 04:56:05;;;;;;;25.85;12.35;;;8.70;94.50;;;;;;4966108;28;20126;-51
2023/11/23 04:58:30;;;;;;;19.02;10.82;;;8.80;94.40;;;;;;4967259;28;20027;-51
2023/11/23 05:00:56;;;;;;;17.67;11.18;;;8.70;94.40;;;;;;4969961;28;20039;-51
2023/11/23 05:03:21;;;;;;;19.13;11.38;;;8.70;94.40;;;;;;4969712;29;20031;-51
2023/11/23 05:05:47;;;;;;;22.38;11.52;;;8.70;94.40;;;;;;4953521;29;20612;-51
2023/11/23 05:08:13;;;;;;;26.75;12.10;;;8.70;94.50;;;;;;4953540;29;20038;-51
2023/11/23 05:10:38;;;;;;;23.63;11.40;;;8.70;94.50;;;;;;4970646;29;20045;-51
2023/11/23 05:13:04;;;;;;;22.83;10.95;;;8.70;94.50;;;;;;4970745;28;20038;-51
2023/11/23 05:15:30;;;;;;;18.58;10.60;;;8.70;94.50;;;;;;4969262;29;20050;-51
2023/11/23 05:17:55;;;;;;;23.20;10.73;;;8.60;94.50;;;;;;4969281;29;20034;-52
2023/11/23 05:20:22;;;;;;;22.23;11.20;;;8.60;94.50;;;;;;4969294;29;20070;-51
2023/11/23 05:22:48;;;;;;;22.95;11.65;;;8.60;94.50;;;;;;4969169;29;20054;-51
2023/11/23 05:25:14;;;;;;;24.38;12.20;;;8.60;94.50;;;;;;4969319;29;20028;-51
2023/11/23 05:27:40;;;;;;;24.85;12.15;;;8.60;94.50;;;;;;4970537;29;20039;-51
2023/11/23 05:30:06;;;;;;;22.73;12.25;;;8.60;94.50;;;;;;4969060;29;20039;-51
2023/11/23 05:32:31;;;;;;;22.17;11.25;;;8.60;94.50;;;;;;4970062;29;20027;-51
2023/11/23 05:34:57;;;;;;;24.05;10.93;;;8.60;94.40;;;;;;4970252;29;20159;-51
2023/11/23 05:37:22;;;;;;;18.42;10.27;;;8.60;94.50;;;;;;4969937;29;20059;-51
2023/11/23 05:39:49;;;;;;;20.98;11.10;;;8.60;94.40;;;;;;4952870;29;20045;-51
2023/11/23 05:42:14;;;;;;;32.47;12.90;;;8.60;94.50;;;;;;4970074;29;20107;-51
2023/11/23 05:44:40;;;;;;;33.22;12.77;;;8.60;94.50;;;;;;4970133;29;20023;-51
2023/11/23 05:47:06;;;;;;;45.60;13.57;;;8.60;94.50;;;;;;4969889;28;20039;-51
2023/11/23 05:49:31;;;;;;;43.13;13.80;;;8.60;94.40;;;;;;4969135;29;20041;-51
2023/11/23 05:51:57;;;;;;;54.78;14.23;;;8.60;94.50;;;;;;4969687;29;20391;-51
2023/11/23 05:54:22;;;;;;;54.17;14.30;;;8.60;94.50;;;;;;4969973;29;20054;-51
2023/11/23 05:56:48;;;;;;;61.35;15.05;;;8.60;94.50;;;;;;4969889;29;20356;-51
2023/11/23 05:59:13;;;;;;;157.13;20.70;;;8.60;94.50;;;;;;4968637;29;20511;-51
2023/11/23 06:01:39;;;;;;;80.38;16.40;;;8.60;94.60;;;;;;4968518;29;20023;-51
2023/11/23 06:04:05;;;;;;;56.33;13.88;;;8.60;94.60;;;;;;4969873;28;20479;-51
2023/11/23 06:06:30;;;;;;;58.60;14.68;;;8.60;94.60;;;;;;4969627;29;20050;-51
2023/11/23 06:08:56;;;;;;;43.83;13.20;;;8.60;94.60;;;;;;4969640;28;20115;-51
2023/11/23 06:11:22;;;;;;;52.47;13.30;;;8.60;94.60;;;;;;4968912;28;20035;-51
2023/11/23 06:13:47;;;;;;;43.65;13.02;;;8.60;94.60;;;;;;4968204;29;20042;-51
2023/11/23 06:16:15;;;;;;;60.53;14.35;;;8.60;94.70;;;;;;4952580;29;20043;-51
2023/11/23 06:18:41;;;;;;;55.92;13.98;;;8.60;94.70;;;;;;4952463;29;20027;-51
2023/11/23 06:21:08;;;;;;;52.55;14.00;;;8.60;94.70;;;;;;4968176;29;20027;-51
2023/11/23 06:23:33;;;;;;;45.00;12.80;;;8.60;94.70;;;;;;4952252;29;20498;-51
2023/11/23 06:25:59;;;;;;;56.42;13.40;;;8.60;94.70;;;;;;4968033;29;20040;-51
2023/11/23 06:28:24;;;;;;;39.30;12.43;;;8.60;94.60;;;;;;4967134;29;20027;-51
2023/11/23 06:30:50;;;;;;;53.15;12.50;;;8.60;94.60;;;;;;4979024;28;20035;-52
2023/11/23 06:33:16;;;;;;;40.80;12.73;;;8.60;94.60;;;;;;4981429;28;20031;-51
2023/11/23 06:35:42;;;;;;;49.30;13.45;;;8.60;94.60;;;;;;4982119;28;20043;-51
2023/11/23 06:38:07;;;;;;;35.88;12.63;;;8.60;94.60;;;;;;4968466;28;20031;-51
2023/11/23 06:40:35;;;;;;;47.28;13.57;;;8.60;94.60;;;;;;4982295;28;20054;-51
2023/11/23 06:43:02;;;;;;;52.72;13.70;;;8.50;94.70;;;;;;4968255;28;20043;-52
2023/11/23 06:45:27;;;;;;;55.45;12.40;;;8.60;94.80;;;;;;4967994;28;20035;-51
2023/11/23 06:47:53;;;;;;;46.78;12.65;;;8.50;94.80;;;;;;4968464;28;20035;-51
2023/11/23 06:50:18;;;;;;;41.55;13.35;;;8.50;94.80;;;;;;4968253;28;20031;-51
2023/11/23 06:52:45;;;;;;;33.72;12.77;;;8.50;94.90;;;;;;4968222;28;20035;-51
2023/11/23 06:55:13;;;;;;;45.55;13.18;;;8.50;94.90;;;;;;4982590;28;20066;-51
2023/11/23 06:57:46;;;;;;;45.35;13.23;;;8.60;94.90;;;;;;4980578;28;20047;-51
2023/11/23 07:00:22;;;;;;;33.83;11.50;;;8.50;94.80;;;;;;4968305;28;20503;-51
2023/11/23 07:02:56;;;;;;;;;;;8.50;94.80;;;;;;4982817;28;20046;-51
2023/11/23 07:05:23;;;;;;;32.42;11.50;;;8.50;94.90;;;;;;4968669;29;19933;-51
2023/11/23 07:07:49;;;;;;;32.97;11.35;;;8.50;95.00;;;;;;4967617;28;20023;-51
2023/11/23 07:10:15;;;;;;;47.63;12.52;;;8.50;94.90;;;;;;4982386;28;20114;-51
2023/11/23 07:12:41;;;;;;;32.60;10.88;;;8.50;94.90;;;;;;4967578;28;20031;-51
2023/11/23 07:15:09;;;;;;;39.03;12.40;;;8.50;94.80;;;;;;4982873;28;20039;-51
2023/11/23 07:17:34;;;;;;;36.17;11.07;;;8.50;94.80;;;;;;4982267;28;20023;-51
2023/11/23 07:20:00;;;;;;;41.92;12.00;;;8.50;94.80;;;;;;4982293;28;20039;-51
2023/11/23 07:22:25;;;;;;;34.78;10.27;;;8.50;94.80;;;;;;4982275;28;20087;-51
2023/11/23 07:24:51;;;;;;;39.17;10.38;;;8.50;94.70;;;;;;4967374;28;20036;-52
2023/11/23 07:27:17;;;;;;;36.30;11.20;;;8.50;94.70;;;;;;4966936;28;20035;-51
2023/11/23 07:29:42;;;;;;;28.42;10.73;;;8.50;94.60;;;;;;4961914;28;20039;-51
2023/11/23 07:32:09;;;;;;;41.05;10.65;;;8.50;94.60;;;;;;4972960;28;20027;-51
2023/11/23 07:34:35;;;;;;;30.13;11.65;;;8.50;94.60;;;;;;4977572;28;20042;-51
2023/11/23 07:37:00;;;;;;;33.70;11.40;;;8.50;94.60;;;;;;4974371;28;20363;-51
2023/11/23 07:39:26;;;;;;;37.70;10.75;;;8.50;94.50;;;;;;4997398;28;20090;-51
2023/11/23 07:41:52;;;;;;;30.02;10.20;;;8.50;94.50;;;;;;4967885;28;20372;-51
2023/11/23 07:44:20;;;;;;;26.42;11.05;;;8.50;94.40;;;;;;4950096;29;20479;-51
2023/11/23 07:46:47;;;;;;;29.48;10.23;;;8.50;94.40;;;;;;4966752;28;20087;-51
2023/11/23 07:49:13;;;;;;;36.42;10.45;;;8.50;94.40;;;;;;4968508;28;20031;-51
2023/11/23 07:51:38;;;;;;;34.88;9.73;;;8.50;94.30;;;;;;4948686;28;20030;-51
2023/11/23 07:54:04;;;;;;;28.85;10.95;;;8.50;94.30;;;;;;4962943;28;20537;-51
2023/11/23 07:56:31;;;;;;;26.52;9.77;;;8.50;94.20;;;;;;4974984;28;20391;-51
2023/11/23 07:58:56;;;;;;;48.53;11.70;;;8.50;94.30;;;;;;4971643;28;20027;-51
2023/11/23 08:01:22;;;;;;;51.28;11.65;;;8.50;94.30;;;;;;4986029;28;20037;-51
2023/11/23 08:03:48;;;;;;;48.40;11.45;;;8.50;94.40;;;;;;4980610;28;20055;-51
2023/11/23 08:06:14;;;;;;;42.22;11.20;;;8.50;94.50;;;;;;4968659;28;20031;-51
2023/11/23 08:08:40;;;;;;;45.25;10.98;;;8.50;94.40;;;;;;4939077;28;20058;-49
2023/11/23 08:11:06;;;;;;;44.42;11.52;;;8.60;94.50;;;;;;4971496;28;20026;-51
2023/11/23 08:13:32;;;;;;;34.00;11.40;;;8.60;94.50;;;;;;4963181;28;20051;-51
2023/11/23 08:16:00;;;;;;;48.38;11.82;;;8.60;94.50;;;;;;4991509;28;20041;-52
2023/11/23 08:18:25;;;;;;;45.15;11.80;;;8.60;94.50;;;;;;4948715;28;20617;-51
2023/11/23 08:20:51;;;;;;;43.17;12.23;;;8.60;94.80;;;;;;4951597;28;20126;-51
2023/11/23 08:23:17;;;;;;;53.42;11.85;;;8.60;94.50;;;;;;4960320;29;20051;-51
2023/11/23 08:25:43;;;;;;;62.53;12.25;;;8.60;94.60;;;;;;4963542;28;20572;-51
2023/11/23 08:28:09;;;;;;;64.78;13.90;;;8.60;94.50;;;;;;4972225;28;20032;-51
2023/11/23 08:30:34;;;;;;;88.20;13.75;;;8.70;94.50;;;;;;4993102;28;20123;-51
2023/11/23 08:33:00;;;;;;;72.00;13.13;;;8.70;94.40;;;;;;4967665;28;20023;-51
2023/11/23 08:35:26;;;;;;;67.93;13.55;;;8.70;94.50;;;;;;4967718;28;20483;-51
2023/11/23 08:37:51;;;;;;;82.10;13.75;;;8.70;94.50;;;;;;4991673;28;20045;-51
2023/11/23 08:40:17;;;;;;;52.70;12.30;;;8.70;94.40;;;;;;4968322;28;20027;-51
2023/11/23 08:42:42;;;;;;;64.05;13.20;;;8.70;94.40;;;;;;4969151;28;20031;-51
2023/11/23 08:45:08;;;;;;;63.83;12.40;;;8.70;94.30;;;;;;4969694;28;20126;-51
2023/11/23 08:47:34;;;;;;;74.43;13.10;;;8.70;94.30;;;;;;4975421;28;20034;-51
2023/11/23 08:50:00;;;;;;;55.83;12.95;;;8.70;94.20;;;;;;4982338;28;20034;-51
2023/11/23 08:52:27;;;;;;;53.50;12.30;;;8.70;94.20;;;;;;4972602;28;20538;-51
2023/11/23 08:54:53;;;;;;;66.20;14.20;;;8.80;94.20;;;;;;4970768;28;20038;-51
2023/11/23 08:57:18;;;;;;;62.95;12.15;;;8.80;94.20;;;;;;4978133;28;20476;-51
2023/11/23 08:59:44;;;;;;;63.80;12.85;;;8.80;94.20;;;;;;4962621;28;20027;-51
2023/11/23 09:02:10;;;;;;;65.25;15.38;;;8.80;94.20;;;;;;4987016;28;20110;-52
2023/11/23 09:04:37;;;;;;;51.50;13.02;;;8.80;94.30;;;;;;4969666;28;20272;-51
2023/11/23 09:07:03;;;;;;;104.43;17.60;;;8.80;94.30;;;;;;4982519;28;20031;-51
2023/11/23 09:09:29;;;;;;;112.13;15.70;;;8.80;94.30;;;;;;4976806;28;20047;-51
2023/11/23 09:11:55;;;;;;;91.63;17.75;;;8.90;94.40;;;;;;4982780;28;20063;-51
2023/11/23 09:14:20;;;;;;;108.78;17.27;;;8.90;94.30;;;;;;4966523;28;20031;-51
2023/11/23 09:16:46;;;;;;;90.05;16.42;;;8.90;94.30;;;;;;4983510;28;20102;-51
2023/11/23 09:19:12;;;;;;;131.02;19.30;;;8.90;94.30;;;;;;4979752;28;20027;-51
2023/11/23 09:21:37;;;;;;;139.48;19.92;;;8.90;94.30;;;;;;4957592;28;20051;-51
2023/11/23 09:24:05;;;;;;;118.28;16.30;;;8.90;94.30;;;;;;4969343;28;20047;-51
2023/11/23 09:26:32;;;;;;;102.63;17.20;;;9.00;94.30;;;;;;4986285;28;20031;-52
2023/11/23 09:28:58;;;;;;;111.10;17.90;;;9.00;94.20;;;;;;4960975;29;20031;-51
2023/11/23 09:31:28;;;;;;;92.97;15.68;;;9.00;94.10;;;;;;4966299;28;20031;-52
2023/11/23 09:33:53;;;;;;;104.65;16.02;;;9.00;94.10;;;;;;4968039;28;20168;-51
2023/11/23 09:36:20;;;;;;;129.95;17.13;;;9.00;94.00;;;;;;4969337;28;20054;-51
2023/11/23 09:38:46;;;;;;;115.05;17.13;;;9.00;94.00;;;;;;4964863;28;20050;-51
2023/11/23 09:41:12;;;;;;;81.53;15.80;;;9.10;94.10;;;;;;4977128;28;20031;-52
2023/11/23 09:43:38;;;;;;;72.97;14.82;;;9.10;94.00;;;;;;4959577;28;20117;-51
2023/11/23 09:46:04;;;;;;;106.05;16.52;;;9.10;94.00;;;;;;4963022;28;20039;-52
2023/11/23 09:48:29;;;;;;;115.15;19.38;;;9.10;94.00;;;;;;4978948;28;20086;-51
2023/11/23 09:50:55;;;;;;;117.07;18.45;;;9.10;93.90;;;;;;4978859;28;20047;-52
2023/11/23 09:53:20;;;;;;;91.25;18.70;;;9.20;93.90;;;;;;4939855;29;20070;-51
2023/11/23 09:55:46;;;;;;;85.18;16.00;;;9.20;93.90;;;;;;4963593;28;20032;-52
2023/11/23 09:58:11;;;;;;;87.15;16.67;;;9.20;93.90;;;;;;4979539;28;20035;-51
2023/11/23 10:00:37;;;;;;;88.88;15.50;;;9.20;93.90;;;;;;4963233;28;20032;-51
2023/11/23 10:03:06;;;;;;;92.85;16.58;;;9.20;93.80;;;;;;4968710;28;20104;-51
2023/11/23 10:05:33;;;;;;;94.95;16.80;;;9.20;93.90;;;;;;4974653;28;20028;-51
2023/11/23 10:07:58;;;;;;;111.13;17.13;;;8.90;93.90;;;;;;4960453;29;20136;-52
2023/11/23 10:10:24;;;;;;;110.28;17.67;;;9.30;94.00;;;;;;4974636;28;20065;-52
2023/11/23 10:12:50;;;;;;;112.95;16.88;;;9.30;94.00;;;;;;4975123;28;20817;-52
2023/11/23 10:15:15;;;;;;;104.30;16.92;;;9.30;93.90;;;;;;4962779;28;20031;-52
2023/11/23 10:17:41;;;;;;;109.68;17.85;;;9.30;93.90;;;;;;4965582;29;20023;-51
2023/11/23 10:20:16;;;;;;;242.68;26.88;;;9.30;93.90;;;;;;4978168;28;20042;-51
2023/11/23 10:22:45;;;;;;;123.50;19.88;;;9.30;93.80;;;;;;4961971;28;20165;-52
2023/11/23 10:25:25;;;;;;;238.13;27.08;;;9.40;93.80;;;;;;4979160;28;20043;-51
2023/11/23 10:27:54;;;;;;;130.38;19.55;;;9.40;93.80;;;;;;4961259;28;20046;-51
2023/11/23 10:30:20;;;;;;;141.85;19.17;;;9.40;93.80;;;;;;4977016;28;20031;-52
2023/11/23 10:32:46;;;;;;;122.35;17.95;;;9.40;93.80;;;;;;4977360;28;20034;-51
2023/11/23 10:35:11;;;;;;;195.85;25.95;;;9.40;93.80;;;;;;4974681;28;20024;-51
2023/11/23 10:37:37;;;;;;;184.13;24.58;;;9.50;93.80;;;;;;4977430;28;20034;-51
2023/11/23 10:40:03;;;;;;;172.95;23.00;;;9.50;93.80;;;;;;4975477;28;20043;-51
2023/11/23 10:42:29;;;;;;;134.75;20.73;;;9.50;93.90;;;;;;4974655;28;20067;-51
2023/11/23 10:44:55;;;;;;;157.20;24.35;;;9.50;93.80;;;;;;4976337;28;20039;-51
2023/11/23 10:47:22;;;;;;;176.27;23.45;;;9.50;93.80;;;;;;4962858;29;20023;-51
2023/11/23 10:49:49;;;;;;;135.57;22.33;;;9.60;94.20;;;;;;4977214;28;20067;-52
2023/11/23 10:52:14;;;;;;;146.10;21.23;;;9.60;93.80;;;;;;4978140;28;20530;-51
2023/11/23 10:54:40;;;;;;;131.98;19.65;;;9.60;93.70;;;;;;4976346;28;20114;-51
2023/11/23 10:57:07;;;;;;;115.22;20.58;;;9.60;93.60;;;;;;4973399;28;20581;-51
2023/11/23 10:59:32;;;;;;;124.68;19.88;;;9.70;93.60;;;;;;4978191;28;20028;-52
2023/11/23 11:01:58;;;;;;;145.65;23.35;;;9.70;93.60;;;;;;4975333;28;20042;-51
2023/11/23 11:04:24;;;;;;;144.73;19.90;;;9.70;93.70;;;;;;4958885;28;20027;-52
2023/11/23 11:06:52;;;;;;;158.68;21.85;;;9.70;93.60;;;;;;4974313;28;20527;-52
2023/11/23 11:09:17;;;;;;;176.10;22.67;;;9.70;93.60;;;;;;4977585;28;20058;-51
2023/11/23 11:11:47;;;;;;;147.82;22.40;;;9.80;93.80;;;;;;4975404;28;20483;-51
2023/11/23 11:14:13;;;;;;;128.52;19.92;;;9.80;93.50;;;;;;4973957;28;20076;-52
2023/11/23 11:16:39;;;;;;;143.73;20.02;;;9.80;93.50;;;;;;4961275;29;20692;-51
2023/11/23 11:19:11;;;;;;;114.43;17.98;;;9.90;93.50;;;;;;4956535;28;20036;-51
2023/11/23 11:21:41;;;;;;;97.05;16.50;;;9.90;93.80;;;;;;4958633;29;20079;-52
2023/11/23 11:24:16;;;;;;;113.93;17.23;;;9.90;93.50;;;;;;4980346;28;20028;-52
2023/11/23 11:26:42;;;;;;;85.13;15.43;;;9.90;93.40;;;;;;4965495;29;20031;-52
2023/11/23 11:29:08;;;;;;;123.82;18.73;;;9.90;93.30;;;;;;4979370;28;20030;-52
2023/11/23 11:31:41;;;;;;;121.93;17.25;;;9.80;93.30;;;;;;4978872;28;20082;-52
2023/11/23 11:34:21;;;;;;;82.00;16.50;;;9.80;93.30;;;;;;4978627;28;20141;-51
2023/11/23 11:36:55;;;;;;;90.20;14.95;;;9.90;93.30;;;;;;4960353;29;20023;-52
2023/11/23 11:39:20;;;;;;;115.78;17.15;;;9.90;93.30;;;;;;4960850;28;20035;-51
2023/11/23 11:41:47;;;;;;;90.13;15.98;;;9.90;93.30;;;;;;4964087;29;20400;-51
2023/11/23 11:44:15;;;;;;;90.05;15.93;;;9.90;93.30;;;;;;4977401;28;20488;-53
2023/11/23 11:46:41;;;;;;;91.65;16.63;;;9.90;93.30;;;;;;4976762;28;20082;-51
2023/11/23 11:49:09;;;;;;;96.00;16.13;;;9.90;93.40;;;;;;4964689;29;20031;-52
2023/11/23 11:51:35;;;;;;;70.47;14.18;;;9.80;93.30;;;;;;4955354;28;20071;-52
2023/11/23 11:54:00;;;;;;;84.80;14.38;;;9.80;93.40;;;;;;4975917;28;20031;-52
2023/11/23 11:56:26;;;;;;;74.90;13.35;;;9.80;93.40;;;;;;4984897;28;20030;-52
2023/11/23 11:58:51;;;;;;;93.63;14.80;;;9.80;93.40;;;;;;4969379;28;20039;-52
2023/11/23 12:01:17;;;;;;;76.63;15.50;;;9.80;93.40;;;;;;4981527;28;20050;-50
2023/11/23 12:03:46;;;;;;;79.47;13.00;;;9.90;93.30;;;;;;4965048;28;20082;-51
2023/11/23 12:06:12;;;;;;;71.47;14.50;;;9.90;93.20;;;;;;4977943;28;20020;-51
2023/11/23 12:08:38;;;;;;;75.00;13.95;;;9.80;93.20;;;;;;4963911;28;20114;-52
2023/11/23 12:11:05;;;;;;;54.08;12.63;;;9.80;93.20;;;;;;4982166;28;20063;-51
2023/11/23 12:13:32;;;;;;;65.90;13.77;;;9.80;93.20;;;;;;4979777;28;20046;-51
2023/11/23 12:15:58;;;;;;;49.92;11.85;;;9.80;93.20;;;;;;4978460;28;20083;-52
2023/11/23 12:18:37;;;;;;;56.53;12.50;;;9.80;93.10;;;;;;4981873;28;20475;-51
2023/11/23 12:21:06;;;;;;;59.75;12.00;;;9.80;93.10;;;;;;4963755;28;20629;-52
2023/11/23 12:23:40;;;;;;;90.40;13.80;;;9.80;93.10;;;;;;4981308;28;20027;-52
2023/11/23 12:26:06;;;;;;;50.70;11.98;;;9.80;93.10;;;;;;4962024;29;20099;-52
2023/11/23 12:28:33;;;;;;;52.40;12.52;;;9.80;93.10;;;;;;4982256;28;20047;-51
2023/11/23 12:30:58;;;;;;;55.25;11.77;;;9.80;93.10;;;;;;4977686;28;20055;-51